sensor_id;sensor_type;location;lat;lon;timestamp;temperature;humidity
30520;DHT22;17300;50.374;8.006;2024-03-02T00:01:31;11.80;46.10
30520;DHT22;17300;50.374;8.006;2024-03-02T00:03:58;11.70;46.00
30520;DHT22;17300;50.374;8.006;2024-03-02T00:06:26;11.70;46.00
30520;DHT22;17300;50.374;8.006;2024-03-02T00:08:57;11.70;46.00
30520;DHT22;17300;50.374;8.006;2024-03-02T00:11:24;11.70;46.20
30520;DHT22;17300;50.374;8.006;2024-03-02T00:13:52;11.70;46.10
30520;DHT22;17300;50.374;8.006;2024-03-02T00:16:19;11.60;46.00
30520;DHT22;17300;50.374;8.006;2024-03-02T00:18:46;11.60;46.00
30520;DHT22;17300;50.374;8.006;2024-03-02T00:21:13;11.60;46.00
30520;DHT22;17300;50.374;8.006;2024-03-02T00:23:43;11.60;46.00
30520;DHT22;17300;50.374;8.006;2024-03-02T00:26:11;11.50;46.00
30520;DHT22;17300;50.374;8.006;2024-03-02T00:28:39;11.50;46.20
30520;DHT22;17300;50.374;8.006;2024-03-02T00:31:08;11.50;46.10
30520;DHT22;17300;50.374;8.006;2024-03-02T00:33:40;11.50;46.10
30520;DHT22;17300;50.374;8.006;2024-03-02T00:36:08;11.50;46.10
30520;DHT22;17300;50.374;8.006;2024-03-02T00:38:46;11.40;46.00
30520;DHT22;17300;50.374;8.006;2024-03-02T00:41:17;11.50;46.30
30520;DHT22;17300;50.374;8.006;2024-03-02T00:43:47;11.40;46.10
30520;DHT22;17300;50.374;8.006;2024-03-02T00:46:17;11.40;46.10
30520;DHT22;17300;50.374;8.006;2024-03-02T00:48:51;11.40;46.10
30520;DHT22;17300;50.374;8.006;2024-03-02T00:51:20;11.30;46.10
30520;DHT22;17300;50.374;8.006;2024-03-02T00:53:48;11.30;46.10
30520;DHT22;17300;50.374;8.006;2024-03-02T00:56:15;11.30;46.80
30520;DHT22;17300;50.374;8.006;2024-03-02T00:58:42;11.30;46.10
30520;DHT22;17300;50.374;8.006;2024-03-02T01:01:08;11.30;46.20
30520;DHT22;17300;50.374;8.006;2024-03-02T01:03:35;11.30;46.40
30520;DHT22;17300;50.374;8.006;2024-03-02T01:06:04;11.30;46.50
30520;DHT22;17300;50.374;8.006;2024-03-02T01:08:33;11.30;46.50
30520;DHT22;17300;50.374;8.006;2024-03-02T01:11:01;11.30;46.60
30520;DHT22;17300;50.374;8.006;2024-03-02T01:13:28;11.30;46.90
30520;DHT22;17300;50.374;8.006;2024-03-02T01:15:54;11.40;47.10
30520;DHT22;17300;50.374;8.006;2024-03-02T01:18:21;11.40;47.20
30520;DHT22;17300;50.374;8.006;2024-03-02T01:20:49;11.40;47.30
30520;DHT22;17300;50.374;8.006;2024-03-02T01:23:17;11.40;47.30
30520;DHT22;17300;50.374;8.006;2024-03-02T01:25:44;11.50;47.30
30520;DHT22;17300;50.374;8.006;2024-03-02T01:28:12;11.50;47.20
30520;DHT22;17300;50.374;8.006;2024-03-02T01:30:39;11.50;47.30
30520;DHT22;17300;50.374;8.006;2024-03-02T01:33:06;11.50;47.30
30520;DHT22;17300;50.374;8.006;2024-03-02T01:35:33;11.60;47.30
30520;DHT22;17300;50.374;8.006;2024-03-02T01:38:01;11.60;47.30
30520;DHT22;17300;50.374;8.006;2024-03-02T01:40:27;11.60;47.20
30520;DHT22;17300;50.374;8.006;2024-03-02T01:42:54;11.60;47.20
30520;DHT22;17300;50.374;8.006;2024-03-02T01:45:24;11.60;47.10
30520;DHT22;17300;50.374;8.006;2024-03-02T01:47:52;11.50;47.10
30520;DHT22;17300;50.374;8.006;2024-03-02T01:50:25;11.60;47.20
30520;DHT22;17300;50.374;8.006;2024-03-02T01:52:52;11.60;47.40
30520;DHT22;17300;50.374;8.006;2024-03-02T01:55:19;11.50;47.10
30520;DHT22;17300;50.374;8.006;2024-03-02T01:57:46;11.50;47.20
30520;DHT22;17300;50.374;8.006;2024-03-02T02:00:13;11.50;47.30
30520;DHT22;17300;50.374;8.006;2024-03-02T02:02:42;11.50;47.40
30520;DHT22;17300;50.374;8.006;2024-03-02T02:05:09;11.50;47.50
30520;DHT22;17300;50.374;8.006;2024-03-02T02:07:35;11.50;47.50
30520;DHT22;17300;50.374;8.006;2024-03-02T02:10:02;11.50;47.60
30520;DHT22;17300;50.374;8.006;2024-03-02T02:12:29;11.50;47.60
30520;DHT22;17300;50.374;8.006;2024-03-02T02:14:56;11.50;47.70
30520;DHT22;17300;50.374;8.006;2024-03-02T02:17:23;11.50;47.70
30520;DHT22;17300;50.374;8.006;2024-03-02T02:19:51;11.50;47.80
30520;DHT22;17300;50.374;8.006;2024-03-02T02:22:19;11.50;47.90
30520;DHT22;17300;50.374;8.006;2024-03-02T02:24:45;11.50;48.00
30520;DHT22;17300;50.374;8.006;2024-03-02T02:27:12;11.60;48.10
30520;DHT22;17300;50.374;8.006;2024-03-02T02:29:40;11.60;48.20
30520;DHT22;17300;50.374;8.006;2024-03-02T02:32:07;11.60;48.20
30520;DHT22;17300;50.374;8.006;2024-03-02T02:34:34;11.60;48.20
30520;DHT22;17300;50.374;8.006;2024-03-02T02:37:00;11.60;48.20
30520;DHT22;17300;50.374;8.006;2024-03-02T02:39:29;11.60;48.30
30520;DHT22;17300;50.374;8.006;2024-03-02T02:41:55;11.70;48.40
30520;DHT22;17300;50.374;8.006;2024-03-02T02:44:22;11.70;48.40
30520;DHT22;17300;50.374;8.006;2024-03-02T02:46:49;11.70;48.40
30520;DHT22;17300;50.374;8.006;2024-03-02T02:49:16;11.80;48.60
30520;DHT22;17300;50.374;8.006;2024-03-02T02:51:42;11.70;48.50
30520;DHT22;17300;50.374;8.006;2024-03-02T02:54:09;11.80;48.50
30520;DHT22;17300;50.374;8.006;2024-03-02T02:56:37;11.80;48.40
30520;DHT22;17300;50.374;8.006;2024-03-02T02:59:04;11.80;48.40
30520;DHT22;17300;50.374;8.006;2024-03-02T03:01:30;11.80;48.30
30520;DHT22;17300;50.374;8.006;2024-03-02T03:03:57;11.80;48.30
30520;DHT22;17300;50.374;8.006;2024-03-02T03:06:23;11.80;48.30
30520;DHT22;17300;50.374;8.006;2024-03-02T03:08:50;11.80;48.20
30520;DHT22;17300;50.374;8.006;2024-03-02T03:11:17;11.80;48.20
30520;DHT22;17300;50.374;8.006;2024-03-02T03:13:45;11.80;48.20
30520;DHT22;17300;50.374;8.006;2024-03-02T03:16:12;11.70;48.20
30520;DHT22;17300;50.374;8.006;2024-03-02T03:18:38;11.70;48.20
30520;DHT22;17300;50.374;8.006;2024-03-02T03:21:05;11.70;48.20
30520;DHT22;17300;50.374;8.006;2024-03-02T03:23:32;11.70;48.20
30520;DHT22;17300;50.374;8.006;2024-03-02T03:25:59;11.70;48.20
30520;DHT22;17300;50.374;8.006;2024-03-02T03:28:26;11.70;48.20
30520;DHT22;17300;50.374;8.006;2024-03-02T03:30:54;11.70;48.20
30520;DHT22;17300;50.374;8.006;2024-03-02T03:33:20;11.60;48.20
30520;DHT22;17300;50.374;8.006;2024-03-02T03:35:47;11.60;48.20
30520;DHT22;17300;50.374;8.006;2024-03-02T03:38:14;11.70;48.20
30520;DHT22;17300;50.374;8.006;2024-03-02T03:40:40;11.60;48.20
30520;DHT22;17300;50.374;8.006;2024-03-02T03:43:07;11.60;48.20
30520;DHT22;17300;50.374;8.006;2024-03-02T03:45:34;11.60;48.30
30520;DHT22;17300;50.374;8.006;2024-03-02T03:48:02;11.60;48.20
30520;DHT22;17300;50.374;8.006;2024-03-02T03:50:28;11.60;48.30
30520;DHT22;17300;50.374;8.006;2024-03-02T03:52:55;11.60;48.30
30520;DHT22;17300;50.374;8.006;2024-03-02T03:55:22;11.60;48.30
30520;DHT22;17300;50.374;8.006;2024-03-02T03:57:49;11.60;48.30
30520;DHT22;17300;50.374;8.006;2024-03-02T04:00:16;11.50;48.20
30520;DHT22;17300;50.374;8.006;2024-03-02T04:02:42;11.60;48.30
30520;DHT22;17300;50.374;8.006;2024-03-02T04:05:10;11.60;48.30
30520;DHT22;17300;50.374;8.006;2024-03-02T04:07:37;11.60;48.40
30520;DHT22;17300;50.374;8.006;2024-03-02T04:10:08;11.50;48.30
30520;DHT22;17300;50.374;8.006;2024-03-02T04:12:36;11.60;48.40
30520;DHT22;17300;50.374;8.006;2024-03-02T04:15:04;11.60;48.40
30520;DHT22;17300;50.374;8.006;2024-03-02T04:17:32;11.60;48.40
30520;DHT22;17300;50.374;8.006;2024-03-02T04:20:01;11.50;48.40
30520;DHT22;17300;50.374;8.006;2024-03-02T04:22:33;11.50;48.40
30520;DHT22;17300;50.374;8.006;2024-03-02T04:25:01;11.50;48.40
30520;DHT22;17300;50.374;8.006;2024-03-02T04:27:30;11.50;48.30
30520;DHT22;17300;50.374;8.006;2024-03-02T04:29:56;11.50;48.30
30520;DHT22;17300;50.374;8.006;2024-03-02T04:32:23;11.50;48.40
30520;DHT22;17300;50.374;8.006;2024-03-02T04:34:50;11.50;48.40
30520;DHT22;17300;50.374;8.006;2024-03-02T04:37:16;11.50;48.40
30520;DHT22;17300;50.374;8.006;2024-03-02T04:39:44;11.50;48.40
30520;DHT22;17300;50.374;8.006;2024-03-02T04:42:11;11.40;48.30
30520;DHT22;17300;50.374;8.006;2024-03-02T04:44:38;11.40;48.30
30520;DHT22;17300;50.374;8.006;2024-03-02T04:47:05;11.40;48.30
30520;DHT22;17300;50.374;8.006;2024-03-02T04:49:31;11.40;48.40
30520;DHT22;17300;50.374;8.006;2024-03-02T04:51:58;11.40;48.50
30520;DHT22;17300;50.374;8.006;2024-03-02T04:54:25;11.40;48.40
30520;DHT22;17300;50.374;8.006;2024-03-02T04:56:53;11.40;48.40
30520;DHT22;17300;50.374;8.006;2024-03-02T04:59:19;11.40;48.70
30520;DHT22;17300;50.374;8.006;2024-03-02T05:01:46;11.40;48.60
30520;DHT22;17300;50.374;8.006;2024-03-02T05:04:13;11.40;48.50
30520;DHT22;17300;50.374;8.006;2024-03-02T05:06:41;11.40;48.50
30520;DHT22;17300;50.374;8.006;2024-03-02T05:09:07;11.40;48.60
30520;DHT22;17300;50.374;8.006;2024-03-02T05:11:34;11.40;48.50
30520;DHT22;17300;50.374;8.006;2024-03-02T05:14:23;11.40;48.60
30520;DHT22;17300;50.374;8.006;2024-03-02T05:16:48;11.40;48.50
30520;DHT22;17300;50.374;8.006;2024-03-02T05:19:15;11.40;48.50
30520;DHT22;17300;50.374;8.006;2024-03-02T05:21:41;11.40;48.50
30520;DHT22;17300;50.374;8.006;2024-03-02T05:24:09;11.40;48.50
30520;DHT22;17300;50.374;8.006;2024-03-02T05:26:35;11.30;48.40
30520;DHT22;17300;50.374;8.006;2024-03-02T05:29:02;11.30;48.50
30520;DHT22;17300;50.374;8.006;2024-03-02T05:31:30;11.30;48.40
30520;DHT22;17300;50.374;8.006;2024-03-02T05:33:57;11.30;48.50
30520;DHT22;17300;50.374;8.006;2024-03-02T05:36:24;11.30;48.50
30520;DHT22;17300;50.374;8.006;2024-03-02T05:38:51;11.30;48.50
30520;DHT22;17300;50.374;8.006;2024-03-02T05:41:17;11.30;48.50
30520;DHT22;17300;50.374;8.006;2024-03-02T05:43:44;11.30;48.50
30520;DHT22;17300;50.374;8.006;2024-03-02T05:46:11;11.30;48.60
30520;DHT22;17300;50.374;8.006;2024-03-02T05:48:39;11.30;48.60
30520;DHT22;17300;50.374;8.006;2024-03-02T05:51:05;11.30;48.70
30520;DHT22;17300;50.374;8.006;2024-03-02T05:53:32;11.30;48.60
30520;DHT22;17300;50.374;8.006;2024-03-02T05:55:59;11.30;48.70
30520;DHT22;17300;50.374;8.006;2024-03-02T05:58:25;11.30;48.70
30520;DHT22;17300;50.374;8.006;2024-03-02T06:01:03;11.40;48.90
30520;DHT22;17300;50.374;8.006;2024-03-02T06:03:30;11.40;48.90
30520;DHT22;17300;50.374;8.006;2024-03-02T06:05:58;11.40;49.00
30520;DHT22;17300;50.374;8.006;2024-03-02T06:08:25;11.40;49.00
30520;DHT22;17300;50.374;8.006;2024-03-02T06:10:51;11.40;49.00
30520;DHT22;17300;50.374;8.006;2024-03-02T06:13:18;11.50;49.10
30520;DHT22;17300;50.374;8.006;2024-03-02T06:15:45;11.50;49.20
30520;DHT22;17300;50.374;8.006;2024-03-02T06:18:11;11.50;49.20
30520;DHT22;17300;50.374;8.006;2024-03-02T06:20:38;11.60;49.20
30520;DHT22;17300;50.374;8.006;2024-03-02T06:23:06;11.60;49.20
30520;DHT22;17300;50.374;8.006;2024-03-02T06:25:32;11.70;49.20
30520;DHT22;17300;50.374;8.006;2024-03-02T06:27:59;11.70;49.20
30520;DHT22;17300;50.374;8.006;2024-03-02T06:30:26;11.70;49.20
30520;DHT22;17300;50.374;8.006;2024-03-02T06:32:52;11.70;49.20
30520;DHT22;17300;50.374;8.006;2024-03-02T06:35:19;11.80;49.20
30520;DHT22;17300;50.374;8.006;2024-03-02T06:37:46;11.80;49.20
30520;DHT22;17300;50.374;8.006;2024-03-02T06:40:13;11.80;49.10
30520;DHT22;17300;50.374;8.006;2024-03-02T06:42:39;11.80;49.10
30520;DHT22;17300;50.374;8.006;2024-03-02T06:45:06;11.80;49.10
30520;DHT22;17300;50.374;8.006;2024-03-02T06:47:33;11.90;49.20
30520;DHT22;17300;50.374;8.006;2024-03-02T06:50:00;11.90;49.20
30520;DHT22;17300;50.374;8.006;2024-03-02T06:52:26;11.90;49.10
30520;DHT22;17300;50.374;8.006;2024-03-02T06:54:53;11.90;49.10
30520;DHT22;17300;50.374;8.006;2024-03-02T06:57:21;12.00;49.20
30520;DHT22;17300;50.374;8.006;2024-03-02T06:59:49;12.00;49.20
30520;DHT22;17300;50.374;8.006;2024-03-02T07:02:19;12.00;49.20
30520;DHT22;17300;50.374;8.006;2024-03-02T07:04:46;12.00;49.20
30520;DHT22;17300;50.374;8.006;2024-03-02T07:07:13;12.10;49.30
30520;DHT22;17300;50.374;8.006;2024-03-02T07:09:39;12.10;49.40
30520;DHT22;17300;50.374;8.006;2024-03-02T07:12:06;12.10;49.40
30520;DHT22;17300;50.374;8.006;2024-03-02T07:14:35;12.20;49.60
30520;DHT22;17300;50.374;8.006;2024-03-02T07:17:19;12.30;49.80
30520;DHT22;17300;50.374;8.006;2024-03-02T07:19:45;12.30;49.70
30520;DHT22;17300;50.374;8.006;2024-03-02T07:22:12;12.40;49.80
30520;DHT22;17300;50.374;8.006;2024-03-02T07:24:40;12.50;49.80
30520;DHT22;17300;50.374;8.006;2024-03-02T07:27:07;12.50;49.60
30520;DHT22;17300;50.374;8.006;2024-03-02T07:29:35;12.60;49.60
30520;DHT22;17300;50.374;8.006;2024-03-02T07:32:02;12.60;49.50
30520;DHT22;17300;50.374;8.006;2024-03-02T07:34:29;12.70;49.50
30520;DHT22;17300;50.374;8.006;2024-03-02T07:36:56;12.70;49.30
30520;DHT22;17300;50.374;8.006;2024-03-02T07:39:23;12.70;49.30
30520;DHT22;17300;50.374;8.006;2024-03-02T07:41:50;12.80;49.20
30520;DHT22;17300;50.374;8.006;2024-03-02T07:44:17;12.80;49.20
30520;DHT22;17300;50.374;8.006;2024-03-02T07:46:46;12.80;49.20
30520;DHT22;17300;50.374;8.006;2024-03-02T07:49:15;12.80;49.10
30520;DHT22;17300;50.374;8.006;2024-03-02T07:51:42;12.90;49.20
30520;DHT22;17300;50.374;8.006;2024-03-02T07:54:08;12.90;49.10
30520;DHT22;17300;50.374;8.006;2024-03-02T07:56:35;12.90;49.10
30520;DHT22;17300;50.374;8.006;2024-03-02T07:59:02;12.90;49.00
30520;DHT22;17300;50.374;8.006;2024-03-02T08:01:30;12.90;48.90
30520;DHT22;17300;50.374;8.006;2024-03-02T08:03:59;13.00;49.00
30520;DHT22;17300;50.374;8.006;2024-03-02T08:06:26;13.00;48.90
30520;DHT22;17300;50.374;8.006;2024-03-02T08:08:53;13.00;49.00
30520;DHT22;17300;50.374;8.006;2024-03-02T08:11:20;13.00;48.90
30520;DHT22;17300;50.374;8.006;2024-03-02T08:13:47;13.10;49.00
30520;DHT22;17300;50.374;8.006;2024-03-02T08:16:14;13.10;48.90
30520;DHT22;17300;50.374;8.006;2024-03-02T08:18:41;13.10;48.90
30520;DHT22;17300;50.374;8.006;2024-03-02T08:21:09;13.10;48.90
30520;DHT22;17300;50.374;8.006;2024-03-02T08:23:36;13.20;49.00
30520;DHT22;17300;50.374;8.006;2024-03-02T08:26:03;13.20;49.10
30520;DHT22;17300;50.374;8.006;2024-03-02T08:28:30;13.30;49.40
30520;DHT22;17300;50.374;8.006;2024-03-02T08:30:57;13.50;50.00
30520;DHT22;17300;50.374;8.006;2024-03-02T08:33:24;13.70;50.70
30520;DHT22;17300;50.374;8.006;2024-03-02T08:35:51;14.00;51.40
30520;DHT22;17300;50.374;8.006;2024-03-02T08:38:19;14.40;51.40
30520;DHT22;17300;50.374;8.006;2024-03-02T08:40:46;14.60;50.80
30520;DHT22;17300;50.374;8.006;2024-03-02T08:43:12;14.80;50.30
30520;DHT22;17300;50.374;8.006;2024-03-02T08:45:40;14.90;49.80
30520;DHT22;17300;50.374;8.006;2024-03-02T08:48:08;15.10;49.70
30520;DHT22;17300;50.374;8.006;2024-03-02T08:50:34;15.20;49.70
30520;DHT22;17300;50.374;8.006;2024-03-02T08:53:02;15.30;49.70
30520;DHT22;17300;50.374;8.006;2024-03-02T08:55:31;15.50;49.70
30520;DHT22;17300;50.374;8.006;2024-03-02T08:57:57;15.60;50.00
30520;DHT22;17300;50.374;8.006;2024-03-02T09:00:25;15.70;49.60
30520;DHT22;17300;50.374;8.006;2024-03-02T09:02:51;15.80;48.80
30520;DHT22;17300;50.374;8.006;2024-03-02T09:05:18;15.90;48.40
30520;DHT22;17300;50.374;8.006;2024-03-02T09:07:45;15.90;48.30
30520;DHT22;17300;50.374;8.006;2024-03-02T09:10:11;15.90;48.20
30520;DHT22;17300;50.374;8.006;2024-03-02T09:12:39;15.90;48.30
30520;DHT22;17300;50.374;8.006;2024-03-02T09:15:07;15.90;48.20
30520;DHT22;17300;50.374;8.006;2024-03-02T09:17:34;15.90;48.20
30520;DHT22;17300;50.374;8.006;2024-03-02T09:20:00;16.00;48.10
30520;DHT22;17300;50.374;8.006;2024-03-02T09:22:29;16.00;47.80
30520;DHT22;17300;50.374;8.006;2024-03-02T09:24:56;16.00;47.70
30520;DHT22;17300;50.374;8.006;2024-03-02T09:27:22;16.00;47.50
30520;DHT22;17300;50.374;8.006;2024-03-02T09:29:50;16.00;47.40
30520;DHT22;17300;50.374;8.006;2024-03-02T09:32:17;16.00;47.30
30520;DHT22;17300;50.374;8.006;2024-03-02T09:34:44;16.00;47.40
30520;DHT22;17300;50.374;8.006;2024-03-02T09:37:10;16.10;48.80
30520;DHT22;17300;50.374;8.006;2024-03-02T09:39:37;16.20;48.40
30520;DHT22;17300;50.374;8.006;2024-03-02T09:42:04;16.40;48.40
30520;DHT22;17300;50.374;8.006;2024-03-02T09:44:33;16.60;48.90
30520;DHT22;17300;50.374;8.006;2024-03-02T09:47:01;16.80;49.20
30520;DHT22;17300;50.374;8.006;2024-03-02T09:49:28;17.10;49.60
30520;DHT22;17300;50.374;8.006;2024-03-02T09:51:55;17.50;50.20
30520;DHT22;17300;50.374;8.006;2024-03-02T09:54:22;18.00;50.70
30520;DHT22;17300;50.374;8.006;2024-03-02T09:56:49;18.30;50.00
30520;DHT22;17300;50.374;8.006;2024-03-02T09:59:16;18.70;49.00
30520;DHT22;17300;50.374;8.006;2024-03-02T10:01:56;18.80;47.70
30520;DHT22;17300;50.374;8.006;2024-03-02T10:04:25;18.80;46.20
30520;DHT22;17300;50.374;8.006;2024-03-02T10:07:09;18.80;45.90
30520;DHT22;17300;50.374;8.006;2024-03-02T10:09:37;18.80;44.50
30520;DHT22;17300;50.374;8.006;2024-03-02T10:12:05;18.70;45.20
30520;DHT22;17300;50.374;8.006;2024-03-02T10:14:32;18.60;45.50
30520;DHT22;17300;50.374;8.006;2024-03-02T10:17:02;18.60;45.50
30520;DHT22;17300;50.374;8.006;2024-03-02T10:19:31;18.60;46.00
30520;DHT22;17300;50.374;8.006;2024-03-02T10:21:59;18.60;45.10
30520;DHT22;17300;50.374;8.006;2024-03-02T10:24:26;18.60;45.30
30520;DHT22;17300;50.374;8.006;2024-03-02T10:26:53;18.70;45.70
30520;DHT22;17300;50.374;8.006;2024-03-02T10:29:20;18.90;47.00
30520;DHT22;17300;50.374;8.006;2024-03-02T10:31:47;19.30;48.60
30520;DHT22;17300;50.374;8.006;2024-03-02T10:34:14;19.80;48.90
30520;DHT22;17300;50.374;8.006;2024-03-02T10:36:43;20.40;49.00
30520;DHT22;17300;50.374;8.006;2024-03-02T10:39:13;21.00;48.50
30520;DHT22;17300;50.374;8.006;2024-03-02T10:41:40;21.70;48.20
30520;DHT22;17300;50.374;8.006;2024-03-02T10:44:08;22.40;48.80
30520;DHT22;17300;50.374;8.006;2024-03-02T10:46:36;23.00;47.90
30520;DHT22;17300;50.374;8.006;2024-03-02T10:49:04;23.70;47.70
30520;DHT22;17300;50.374;8.006;2024-03-02T10:51:32;24.30;47.60
30520;DHT22;17300;50.374;8.006;2024-03-02T10:54:01;24.90;47.20
30520;DHT22;17300;50.374;8.006;2024-03-02T10:56:30;25.40;45.50
30520;DHT22;17300;50.374;8.006;2024-03-02T10:59:02;25.80;45.00
30520;DHT22;17300;50.374;8.006;2024-03-02T11:01:31;26.20;43.80
30520;DHT22;17300;50.374;8.006;2024-03-02T11:03:59;26.60;43.80
30520;DHT22;17300;50.374;8.006;2024-03-02T11:06:28;26.90;42.90
30520;DHT22;17300;50.374;8.006;2024-03-02T11:09:02;27.20;42.20
30520;DHT22;17300;50.374;8.006;2024-03-02T11:11:36;27.40;40.70
30520;DHT22;17300;50.374;8.006;2024-03-02T11:14:05;27.30;38.90
30520;DHT22;17300;50.374;8.006;2024-03-02T11:16:35;27.10;37.70
30520;DHT22;17300;50.374;8.006;2024-03-02T11:19:04;26.70;37.00
30520;DHT22;17300;50.374;8.006;2024-03-02T11:21:32;26.30;36.60
30520;DHT22;17300;50.374;8.006;2024-03-02T11:23:59;25.80;35.40
30520;DHT22;17300;50.374;8.006;2024-03-02T11:26:29;25.40;35.80
30520;DHT22;17300;50.374;8.006;2024-03-02T11:29:04;24.80;35.40
30520;DHT22;17300;50.374;8.006;2024-03-02T11:31:58;24.30;35.10
30520;DHT22;17300;50.374;8.006;2024-03-02T11:34:29;23.70;34.50
30520;DHT22;17300;50.374;8.006;2024-03-02T11:36:55;23.20;35.10
30520;DHT22;17300;50.374;8.006;2024-03-02T11:39:22;22.70;35.10
30520;DHT22;17300;50.374;8.006;2024-03-02T11:41:51;22.30;35.60
30520;DHT22;17300;50.374;8.006;2024-03-02T11:44:18;22.00;36.40
30520;DHT22;17300;50.374;8.006;2024-03-02T11:46:45;21.80;37.00
30520;DHT22;17300;50.374;8.006;2024-03-02T11:49:14;21.70;37.90
30520;DHT22;17300;50.374;8.006;2024-03-02T11:51:51;21.80;39.00
30520;DHT22;17300;50.374;8.006;2024-03-02T11:54:19;22.00;38.90
30520;DHT22;17300;50.374;8.006;2024-03-02T11:56:47;22.30;40.20
30520;DHT22;17300;50.374;8.006;2024-03-02T11:59:15;22.70;40.50
30520;DHT22;17300;50.374;8.006;2024-03-02T12:01:42;23.10;40.50
30520;DHT22;17300;50.374;8.006;2024-03-02T12:04:10;23.60;41.20
30520;DHT22;17300;50.374;8.006;2024-03-02T12:06:37;24.20;41.50
30520;DHT22;17300;50.374;8.006;2024-03-02T12:09:04;24.70;40.70
30520;DHT22;17300;50.374;8.006;2024-03-02T12:11:36;25.20;40.50
30520;DHT22;17300;50.374;8.006;2024-03-02T12:14:03;25.70;39.90
30520;DHT22;17300;50.374;8.006;2024-03-02T12:16:31;26.10;39.30
30520;DHT22;17300;50.374;8.006;2024-03-02T12:18:58;26.60;38.80
30520;DHT22;17300;50.374;8.006;2024-03-02T12:21:24;26.90;38.20
30520;DHT22;17300;50.374;8.006;2024-03-02T12:23:51;27.30;38.00
30520;DHT22;17300;50.374;8.006;2024-03-02T12:26:18;27.60;37.70
30520;DHT22;17300;50.374;8.006;2024-03-02T12:28:45;27.90;37.10
30520;DHT22;17300;50.374;8.006;2024-03-02T12:31:13;28.30;36.80
30520;DHT22;17300;50.374;8.006;2024-03-02T12:33:41;28.60;36.60
30520;DHT22;17300;50.374;8.006;2024-03-02T12:36:09;28.90;36.10
30520;DHT22;17300;50.374;8.006;2024-03-02T12:38:37;29.20;35.50
30520;DHT22;17300;50.374;8.006;2024-03-02T12:41:04;29.50;35.60
30520;DHT22;17300;50.374;8.006;2024-03-02T12:43:31;29.70;34.80
30520;DHT22;17300;50.374;8.006;2024-03-02T12:45:58;29.90;34.50
30520;DHT22;17300;50.374;8.006;2024-03-02T12:48:25;30.00;34.10
30520;DHT22;17300;50.374;8.006;2024-03-02T12:50:54;30.20;33.30
30520;DHT22;17300;50.374;8.006;2024-03-02T12:53:21;30.30;32.80
30520;DHT22;17300;50.374;8.006;2024-03-02T12:55:48;30.30;32.50
30520;DHT22;17300;50.374;8.006;2024-03-02T12:58:19;30.30;32.10
30520;DHT22;17300;50.374;8.006;2024-03-02T13:00:46;30.40;31.30
30520;DHT22;17300;50.374;8.006;2024-03-02T13:03:13;30.40;31.70
30520;DHT22;17300;50.374;8.006;2024-03-02T13:05:41;30.50;31.60
30520;DHT22;17300;50.374;8.006;2024-03-02T13:08:09;30.50;31.00
30520;DHT22;17300;50.374;8.006;2024-03-02T13:10:35;30.60;31.00
30520;DHT22;17300;50.374;8.006;2024-03-02T13:13:02;30.60;30.30
30520;DHT22;17300;50.374;8.006;2024-03-02T13:15:29;30.60;30.20
30520;DHT22;17300;50.374;8.006;2024-03-02T13:17:58;30.70;29.90
30520;DHT22;17300;50.374;8.006;2024-03-02T13:20:30;30.70;29.70
30520;DHT22;17300;50.374;8.006;2024-03-02T13:22:58;30.70;29.40
30520;DHT22;17300;50.374;8.006;2024-03-02T13:25:26;30.70;29.60
30520;DHT22;17300;50.374;8.006;2024-03-02T13:27:52;30.80;29.30
30520;DHT22;17300;50.374;8.006;2024-03-02T13:30:19;30.80;29.20
30520;DHT22;17300;50.374;8.006;2024-03-02T13:32:45;30.80;29.10
30520;DHT22;17300;50.374;8.006;2024-03-02T13:35:12;30.80;28.90
30520;DHT22;17300;50.374;8.006;2024-03-02T13:37:39;30.80;28.80
30520;DHT22;17300;50.374;8.006;2024-03-02T13:40:07;30.80;29.00
30520;DHT22;17300;50.374;8.006;2024-03-02T13:42:39;30.80;28.90
30520;DHT22;17300;50.374;8.006;2024-03-02T13:45:06;30.80;28.90
30520;DHT22;17300;50.374;8.006;2024-03-02T13:47:33;30.80;28.90
30520;DHT22;17300;50.374;8.006;2024-03-02T13:50:00;30.80;28.30
30520;DHT22;17300;50.374;8.006;2024-03-02T13:52:28;30.80;28.40
30520;DHT22;17300;50.374;8.006;2024-03-02T13:54:55;30.80;28.30
30520;DHT22;17300;50.374;8.006;2024-03-02T13:57:22;30.80;28.50
30520;DHT22;17300;50.374;8.006;2024-03-02T13:59:50;30.80;28.10
30520;DHT22;17300;50.374;8.006;2024-03-02T14:02:18;30.80;28.10
30520;DHT22;17300;50.374;8.006;2024-03-02T14:04:45;30.80;28.00
30520;DHT22;17300;50.374;8.006;2024-03-02T14:07:12;30.70;28.00
30520;DHT22;17300;50.374;8.006;2024-03-02T14:09:38;30.70;27.80
30520;DHT22;17300;50.374;8.006;2024-03-02T14:12:06;30.60;27.50
30520;DHT22;17300;50.374;8.006;2024-03-02T14:14:33;30.60;27.80
30520;DHT22;17300;50.374;8.006;2024-03-02T14:17:01;30.60;27.80
30520;DHT22;17300;50.374;8.006;2024-03-02T14:19:29;30.50;27.70
30520;DHT22;17300;50.374;8.006;2024-03-02T14:21:56;30.50;27.60
30520;DHT22;17300;50.374;8.006;2024-03-02T14:24:23;30.40;27.50
30520;DHT22;17300;50.374;8.006;2024-03-02T14:26:51;30.40;27.40
30520;DHT22;17300;50.374;8.006;2024-03-02T14:29:18;30.30;27.20
30520;DHT22;17300;50.374;8.006;2024-03-02T14:31:44;30.20;27.30
30520;DHT22;17300;50.374;8.006;2024-03-02T14:34:15;30.00;27.50
30520;DHT22;17300;50.374;8.006;2024-03-02T14:36:42;29.90;27.30
30520;DHT22;17300;50.374;8.006;2024-03-02T14:39:09;29.80;27.30
30520;DHT22;17300;50.374;8.006;2024-03-02T14:41:36;29.70;27.30
30520;DHT22;17300;50.374;8.006;2024-03-02T14:44:03;29.40;26.90
30520;DHT22;17300;50.374;8.006;2024-03-02T14:46:29;29.20;26.80
30520;DHT22;17300;50.374;8.006;2024-03-02T14:48:56;28.90;26.40
30520;DHT22;17300;50.374;8.006;2024-03-02T14:51:24;28.60;26.50
30520;DHT22;17300;50.374;8.006;2024-03-02T14:53:51;28.30;26.70
30520;DHT22;17300;50.374;8.006;2024-03-02T14:56:18;28.00;26.80
30520;DHT22;17300;50.374;8.006;2024-03-02T14:58:44;27.70;27.10
30520;DHT22;17300;50.374;8.006;2024-03-02T15:01:11;27.50;27.20
30520;DHT22;17300;50.374;8.006;2024-03-02T15:03:38;27.20;27.20
30520;DHT22;17300;50.374;8.006;2024-03-02T15:06:05;27.00;27.40
30520;DHT22;17300;50.374;8.006;2024-03-02T15:08:34;26.70;27.40
30520;DHT22;17300;50.374;8.006;2024-03-02T15:11:01;26.50;27.50
30520;DHT22;17300;50.374;8.006;2024-03-02T15:13:29;26.20;27.40
30520;DHT22;17300;50.374;8.006;2024-03-02T15:15:56;26.00;27.60
30520;DHT22;17300;50.374;8.006;2024-03-02T15:18:23;25.70;27.80
30520;DHT22;17300;50.374;8.006;2024-03-02T15:20:49;25.50;28.10
30520;DHT22;17300;50.374;8.006;2024-03-02T15:23:16;25.30;28.30
30520;DHT22;17300;50.374;8.006;2024-03-02T15:25:44;25.20;28.50
30520;DHT22;17300;50.374;8.006;2024-03-02T15:28:11;25.00;28.50
30520;DHT22;17300;50.374;8.006;2024-03-02T15:30:37;24.90;28.60
30520;DHT22;17300;50.374;8.006;2024-03-02T15:33:04;24.70;28.60